sensor_id;sensor_type;location;lat;lon;timestamp;P1;durP1;ratioP1;P2;durP2;ratioP2
45714;SDS011;31430;61.646;24.704;2023-03-29T00:01:56;48.25;;;45.25;;
45714;SDS011;31430;61.646;24.704;2023-03-29T00:04:21;46.92;;;44.03;;
45714;SDS011;31430;61.646;24.704;2023-03-29T00:06:51;48.60;;;45.60;;
45714;SDS011;31430;61.646;24.704;2023-03-29T00:09:18;48.15;;;45.15;;
45714;SDS011;31430;61.646;24.704;2023-03-29T00:11:44;48.00;;;45.00;;
45714;SDS011;31430;61.646;24.704;2023-03-29T00:14:09;48.22;;;45.22;;
45714;SDS011;31430;61.646;24.704;2023-03-29T00:16:36;47.10;;;44.17;;
45714;SDS011;31430;61.646;24.704;2023-03-29T00:19:02;49.03;;;45.97;;
45714;SDS011;31430;61.646;24.704;2023-03-29T00:21:28;49.45;;;46.38;;
45714;SDS011;31430;61.646;24.704;2023-03-29T00:23:54;47.60;;;44.63;;
45714;SDS011;31430;61.646;24.704;2023-03-29T00:26:21;47.10;;;44.17;;
45714;SDS011;31430;61.646;24.704;2023-03-29T00:28:46;48.08;;;45.08;;
45714;SDS011;31430;61.646;24.704;2023-03-29T00:31:13;49.65;;;46.55;;
45714;SDS011;31430;61.646;24.704;2023-03-29T00:33:40;49.92;;;46.83;;
45714;SDS011;31430;61.646;24.704;2023-03-29T00:36:07;48.20;;;45.20;;
45714;SDS011;31430;61.646;24.704;2023-03-29T00:38:34;46.70;;;43.80;;
45714;SDS011;31430;61.646;24.704;2023-03-29T00:41:01;48.58;;;45.58;;
45714;SDS011;31430;61.646;24.704;2023-03-29T00:43:27;47.80;;;44.83;;
45714;SDS011;31430;61.646;24.704;2023-03-29T00:45:53;49.42;;;46.38;;
45714;SDS011;31430;61.646;24.704;2023-03-29T00:48:20;49.33;;;46.25;;
45714;SDS011;31430;61.646;24.704;2023-03-29T00:50:55;48.75;;;45.72;;
45714;SDS011;31430;61.646;24.704;2023-03-29T00:53:31;47.10;;;44.20;;
45714;SDS011;31430;61.646;24.704;2023-03-29T00:56:05;50.20;;;47.10;;
45714;SDS011;31430;61.646;24.704;2023-03-29T01:01:18;50.08;;;46.97;;
45714;SDS011;31430;61.646;24.704;2023-03-29T01:03:54;49.42;;;46.35;;
45714;SDS011;31430;61.646;24.704;2023-03-29T01:06:27;48.47;;;45.47;;
45714;SDS011;31430;61.646;24.704;2023-03-29T01:08:56;48.42;;;45.42;;
45714;SDS011;31430;61.646;24.704;2023-03-29T01:11:41;50.70;;;47.55;;
45714;SDS011;31430;61.646;24.704;2023-03-29T01:14:17;50.58;;;47.42;;
45714;SDS011;31430;61.646;24.704;2023-03-29T01:16:47;50.22;;;47.13;;
45714;SDS011;31430;61.646;24.704;2023-03-29T01:19:14;51.20;;;48.00;;
45714;SDS011;31430;61.646;24.704;2023-03-29T01:21:49;49.95;;;46.85;;
45714;SDS011;31430;61.646;24.704;2023-03-29T01:24:47;58.67;;;55.03;;
45714;SDS011;31430;61.646;24.704;2023-03-29T01:30:20;50.45;;;47.33;;
45714;SDS011;31430;61.646;24.704;2023-03-29T01:33:04;50.63;;;47.47;;
45714;SDS011;31430;61.646;24.704;2023-03-29T01:35:40;51.65;;;48.45;;
45714;SDS011;31430;61.646;24.704;2023-03-29T01:38:55;49.15;;;46.10;;
45714;SDS011;31430;61.646;24.704;2023-03-29T01:41:06;51.22;;;48.03;;
45714;SDS011;31430;61.646;24.704;2023-03-29T01:46:08;49.33;;;46.25;;
45714;SDS011;31430;61.646;24.704;2023-03-29T01:51:13;50.53;;;47.38;;
45714;SDS011;31430;61.646;24.704;2023-03-29T01:53:56;50.85;;;47.67;;
45714;SDS011;31430;61.646;24.704;2023-03-29T01:56:27;50.75;;;47.60;;
45714;SDS011;31430;61.646;24.704;2023-03-29T01:58:57;49.80;;;46.70;;
45714;SDS011;31430;61.646;24.704;2023-03-29T02:01:28;49.22;;;46.15;;
45714;SDS011;31430;61.646;24.704;2023-03-29T02:04:00;50.13;;;47.03;;
45714;SDS011;31430;61.646;24.704;2023-03-29T02:06:28;48.67;;;45.65;;
45714;SDS011;31430;61.646;24.704;2023-03-29T02:08:57;47.22;;;44.30;;
45714;SDS011;31430;61.646;24.704;2023-03-29T02:11:23;47.60;;;44.63;;
45714;SDS011;31430;61.646;24.704;2023-03-29T02:13:51;47.53;;;44.58;;
45714;SDS011;31430;61.646;24.704;2023-03-29T02:16:17;48.70;;;45.67;;
45714;SDS011;31430;61.646;24.704;2023-03-29T02:18:44;49.42;;;46.35;;
45714;SDS011;31430;61.646;24.704;2023-03-29T02:21:15;47.58;;;44.60;;
45714;SDS011;31430;61.646;24.704;2023-03-29T02:26:35;49.80;;;46.70;;
45714;SDS011;31430;61.646;24.704;2023-03-29T02:29:01;47.50;;;44.55;;
45714;SDS011;31430;61.646;24.704;2023-03-29T02:39:12;46.33;;;43.42;;
45714;SDS011;31430;61.646;24.704;2023-03-29T02:41:40;48.30;;;45.30;;
45714;SDS011;31430;61.646;24.704;2023-03-29T02:44:10;47.35;;;44.40;;
45714;SDS011;31430;61.646;24.704;2023-03-29T02:46:40;48.65;;;45.63;;
45714;SDS011;31430;61.646;24.704;2023-03-29T02:49:10;46.60;;;43.70;;
45714;SDS011;31430;61.646;24.704;2023-03-29T02:51:36;46.78;;;43.88;;
45714;SDS011;31430;61.646;24.704;2023-03-29T02:54:16;47.38;;;44.42;;
45714;SDS011;31430;61.646;24.704;2023-03-29T02:56:45;48.30;;;45.30;;
45714;SDS011;31430;61.646;24.704;2023-03-29T02:59:13;47.90;;;44.90;;
45714;SDS011;31430;61.646;24.704;2023-03-29T03:01:43;48.35;;;45.35;;
45714;SDS011;31430;61.646;24.704;2023-03-29T03:04:10;47.13;;;44.20;;
45714;SDS011;31430;61.646;24.704;2023-03-29T03:06:36;46.92;;;44.03;;
45714;SDS011;31430;61.646;24.704;2023-03-29T03:09:03;49.20;;;46.15;;
45714;SDS011;31430;61.646;24.704;2023-03-29T03:11:30;46.63;;;43.72;;
45714;SDS011;31430;61.646;24.704;2023-03-29T03:13:56;49.10;;;46.05;;
45714;SDS011;31430;61.646;24.704;2023-03-29T03:16:22;47.85;;;44.85;;
45714;SDS011;31430;61.646;24.704;2023-03-29T03:18:48;47.20;;;44.28;;
45714;SDS011;31430;61.646;24.704;2023-03-29T03:21:18;47.53;;;44.58;;
45714;SDS011;31430;61.646;24.704;2023-03-29T03:23:44;47.95;;;44.95;;
45714;SDS011;31430;61.646;24.704;2023-03-29T03:26:11;48.35;;;45.35;;
45714;SDS011;31430;61.646;24.704;2023-03-29T03:28:37;46.60;;;43.70;;
45714;SDS011;31430;61.646;24.704;2023-03-29T03:31:04;47.60;;;44.63;;
45714;SDS011;31430;61.646;24.704;2023-03-29T03:33:30;45.70;;;42.85;;
45714;SDS011;31430;61.646;24.704;2023-03-29T03:35:56;47.25;;;44.33;;
45714;SDS011;31430;61.646;24.704;2023-03-29T03:38:29;45.88;;;43.00;;
45714;SDS011;31430;61.646;24.704;2023-03-29T03:40:56;47.35;;;44.40;;
45714;SDS011;31430;61.646;24.704;2023-03-29T03:43:22;48.50;;;45.50;;
45714;SDS011;31430;61.646;24.704;2023-03-29T03:45:48;49.88;;;46.78;;
45714;SDS011;31430;61.646;24.704;2023-03-29T03:48:14;46.78;;;43.88;;
45714;SDS011;31430;61.646;24.704;2023-03-29T03:50:41;47.83;;;44.85;;
45714;SDS011;31430;61.646;24.704;2023-03-29T03:53:11;47.05;;;44.13;;
45714;SDS011;31430;61.646;24.704;2023-03-29T03:55:37;48.67;;;45.65;;
45714;SDS011;31430;61.646;24.704;2023-03-29T03:58:03;48.95;;;45.90;;
45714;SDS011;31430;61.646;24.704;2023-03-29T04:00:29;47.13;;;44.20;;
45714;SDS011;31430;61.646;24.704;2023-03-29T04:02:55;47.45;;;44.50;;
45714;SDS011;31430;61.646;24.704;2023-03-29T04:05:20;47.70;;;44.72;;
45714;SDS011;31430;61.646;24.704;2023-03-29T04:07:46;47.38;;;44.42;;
45714;SDS011;31430;61.646;24.704;2023-03-29T04:10:12;49.08;;;46.03;;
45714;SDS011;31430;61.646;24.704;2023-03-29T04:12:38;48.88;;;45.85;;
45714;SDS011;31430;61.646;24.704;2023-03-29T04:15:04;49.25;;;46.17;;
45714;SDS011;31430;61.646;24.704;2023-03-29T04:17:30;47.90;;;44.90;;
45714;SDS011;31430;61.646;24.704;2023-03-29T04:19:56;47.70;;;44.72;;
45714;SDS011;31430;61.646;24.704;2023-03-29T04:22:23;48.45;;;45.45;;
45714;SDS011;31430;61.646;24.704;2023-03-29T04:24:51;50.22;;;47.13;;
45714;SDS011;31430;61.646;24.704;2023-03-29T04:27:17;49.35;;;46.28;;
45714;SDS011;31430;61.646;24.704;2023-03-29T04:29:43;49.58;;;46.50;;
45714;SDS011;31430;61.646;24.704;2023-03-29T04:32:09;50.28;;;47.15;;
45714;SDS011;31430;61.646;24.704;2023-03-29T04:34:36;49.67;;;46.58;;
45714;SDS011;31430;61.646;24.704;2023-03-29T04:37:02;49.55;;;46.45;;
45714;SDS011;31430;61.646;24.704;2023-03-29T04:39:34;49.55;;;46.45;;
45714;SDS011;31430;61.646;24.704;2023-03-29T04:42:00;47.53;;;44.58;;
45714;SDS011;31430;61.646;24.704;2023-03-29T04:44:27;48.97;;;45.92;;
45714;SDS011;31430;61.646;24.704;2023-03-29T04:46:53;49.88;;;46.78;;
45714;SDS011;31430;61.646;24.704;2023-03-29T04:49:18;46.72;;;43.83;;
45714;SDS011;31430;61.646;24.704;2023-03-29T04:51:44;47.97;;;44.97;;
45714;SDS011;31430;61.646;24.704;2023-03-29T04:54:10;48.90;;;45.85;;
45714;SDS011;31430;61.646;24.704;2023-03-29T04:56:36;46.85;;;43.95;;
45714;SDS011;31430;61.646;24.704;2023-03-29T04:59:02;48.45;;;45.45;;
45714;SDS011;31430;61.646;24.704;2023-03-29T05:01:27;46.83;;;43.92;;
45714;SDS011;31430;61.646;24.704;2023-03-29T05:03:53;47.08;;;44.15;;
45714;SDS011;31430;61.646;24.704;2023-03-29T05:06:19;49.33;;;46.25;;
45714;SDS011;31430;61.646;24.704;2023-03-29T05:08:45;48.65;;;45.63;;
45714;SDS011;31430;61.646;24.704;2023-03-29T05:11:11;49.08;;;46.03;;
45714;SDS011;31430;61.646;24.704;2023-03-29T05:13:37;48.42;;;45.42;;
45714;SDS011;31430;61.646;24.704;2023-03-29T05:16:03;48.70;;;45.70;;
45714;SDS011;31430;61.646;24.704;2023-03-29T05:18:30;48.00;;;45.00;;
45714;SDS011;31430;61.646;24.704;2023-03-29T05:20:57;46.95;;;44.05;;
45714;SDS011;31430;61.646;24.704;2023-03-29T05:23:23;46.92;;;44.03;;
45714;SDS011;31430;61.646;24.704;2023-03-29T05:25:50;46.38;;;43.47;;
45714;SDS011;31430;61.646;24.704;2023-03-29T05:28:17;45.97;;;43.10;;
45714;SDS011;31430;61.646;24.704;2023-03-29T05:30:43;46.75;;;43.85;;
45714;SDS011;31430;61.646;24.704;2023-03-29T05:33:09;46.50;;;43.60;;
45714;SDS011;31430;61.646;24.704;2023-03-29T05:35:35;46.22;;;43.33;;
45714;SDS011;31430;61.646;24.704;2023-03-29T05:38:02;47.25;;;44.33;;
45714;SDS011;31430;61.646;24.704;2023-03-29T05:40:28;48.72;;;45.70;;
45714;SDS011;31430;61.646;24.704;2023-03-29T05:42:55;46.83;;;43.92;;
45714;SDS011;31430;61.646;24.704;2023-03-29T05:45:22;47.20;;;44.28;;
45714;SDS011;31430;61.646;24.704;2023-03-29T05:47:48;46.30;;;43.40;;
45714;SDS011;31430;61.646;24.704;2023-03-29T05:50:14;47.28;;;44.35;;
45714;SDS011;31430;61.646;24.704;2023-03-29T05:52:40;46.10;;;43.22;;
45714;SDS011;31430;61.646;24.704;2023-03-29T05:55:07;47.85;;;44.85;;
45714;SDS011;31430;61.646;24.704;2023-03-29T05:57:36;45.30;;;42.50;;
45714;SDS011;31430;61.646;24.704;2023-03-29T06:00:03;44.90;;;42.10;;
45714;SDS011;31430;61.646;24.704;2023-03-29T06:02:40;45.35;;;42.55;;
45714;SDS011;31430;61.646;24.704;2023-03-29T06:05:06;45.42;;;42.63;;
45714;SDS011;31430;61.646;24.704;2023-03-29T06:07:33;47.13;;;44.20;;
45714;SDS011;31430;61.646;24.704;2023-03-29T06:09:58;45.13;;;42.33;;
45714;SDS011;31430;61.646;24.704;2023-03-29T06:12:24;46.60;;;43.70;;
45714;SDS011;31430;61.646;24.704;2023-03-29T06:14:50;46.63;;;43.72;;
45714;SDS011;31430;61.646;24.704;2023-03-29T06:17:16;46.05;;;43.17;;
45714;SDS011;31430;61.646;24.704;2023-03-29T06:19:42;44.90;;;42.10;;
45714;SDS011;31430;61.646;24.704;2023-03-29T06:22:08;44.83;;;42.03;;
45714;SDS011;31430;61.646;24.704;2023-03-29T06:24:34;46.00;;;43.13;;
45714;SDS011;31430;61.646;24.704;2023-03-29T06:27:00;44.67;;;41.88;;
45714;SDS011;31430;61.646;24.704;2023-03-29T06:29:26;45.53;;;42.70;;
45714;SDS011;31430;61.646;24.704;2023-03-29T06:31:52;44.88;;;42.08;;
45714;SDS011;31430;61.646;24.704;2023-03-29T06:34:18;45.13;;;42.33;;
45714;SDS011;31430;61.646;24.704;2023-03-29T06:36:45;44.63;;;41.83;;
45714;SDS011;31430;61.646;24.704;2023-03-29T06:39:11;45.00;;;42.20;;
45714;SDS011;31430;61.646;24.704;2023-03-29T06:41:37;44.67;;;41.88;;
45714;SDS011;31430;61.646;24.704;2023-03-29T06:44:03;44.60;;;41.80;;
45714;SDS011;31430;61.646;24.704;2023-03-29T06:46:29;44.65;;;41.85;;
45714;SDS011;31430;61.646;24.704;2023-03-29T06:48:55;44.20;;;41.45;;
45714;SDS011;31430;61.646;24.704;2023-03-29T06:51:21;43.15;;;40.45;;
45714;SDS011;31430;61.646;24.704;2023-03-29T06:53:46;43.85;;;41.15;;
45714;SDS011;31430;61.646;24.704;2023-03-29T06:56:12;43.28;;;40.58;;
45714;SDS011;31430;61.646;24.704;2023-03-29T06:58:38;44.95;;;42.15;;
45714;SDS011;31430;61.646;24.704;2023-03-29T07:01:05;44.17;;;41.42;;
45714;SDS011;31430;61.646;24.704;2023-03-29T07:03:30;43.92;;;41.20;;
45714;SDS011;31430;61.646;24.704;2023-03-29T07:06:02;43.42;;;40.72;;
45714;SDS011;31430;61.646;24.704;2023-03-29T07:08:33;43.72;;;41.03;;
45714;SDS011;31430;61.646;24.704;2023-03-29T07:11:07;43.15;;;40.45;;
45714;SDS011;31430;61.646;24.704;2023-03-29T07:13:34;43.10;;;40.40;;
45714;SDS011;31430;61.646;24.704;2023-03-29T07:16:00;43.30;;;40.60;;
45714;SDS011;31430;61.646;24.704;2023-03-29T07:18:25;43.85;;;41.13;;
45714;SDS011;31430;61.646;24.704;2023-03-29T07:20:51;42.28;;;39.65;;
45714;SDS011;31430;61.646;24.704;2023-03-29T07:23:17;41.60;;;39.00;;
45714;SDS011;31430;61.646;24.704;2023-03-29T07:25:43;43.35;;;40.65;;
45714;SDS011;31430;61.646;24.704;2023-03-29T07:28:09;42.33;;;39.72;;
45714;SDS011;31430;61.646;24.704;2023-03-29T07:30:35;41.65;;;39.05;;
45714;SDS011;31430;61.646;24.704;2023-03-29T07:33:01;43.30;;;40.60;;
45714;SDS011;31430;61.646;24.704;2023-03-29T07:37:53;44.67;;;41.88;;
45714;SDS011;31430;61.646;24.704;2023-03-29T07:40:19;43.40;;;40.70;;
45714;SDS011;31430;61.646;24.704;2023-03-29T07:42:51;43.80;;;41.08;;
45714;SDS011;31430;61.646;24.704;2023-03-29T07:45:19;43.17;;;40.47;;
45714;SDS011;31430;61.646;24.704;2023-03-29T07:47:47;42.13;;;39.53;;
45714;SDS011;31430;61.646;24.704;2023-03-29T07:50:16;42.35;;;39.72;;
45714;SDS011;31430;61.646;24.704;2023-03-29T07:52:42;42.20;;;39.58;;
45714;SDS011;31430;61.646;24.704;2023-03-29T08:00:01;46.63;;;43.73;;
45714;SDS011;31430;61.646;24.704;2023-03-29T08:02:43;44.78;;;41.97;;
45714;SDS011;31430;61.646;24.704;2023-03-29T08:05:17;44.90;;;42.10;;
45714;SDS011;31430;61.646;24.704;2023-03-29T08:07:44;43.50;;;40.80;;
45714;SDS011;31430;61.646;24.704;2023-03-29T08:10:12;43.53;;;40.83;;
45714;SDS011;31430;61.646;24.704;2023-03-29T08:12:39;43.80;;;41.10;;
45714;SDS011;31430;61.646;24.704;2023-03-29T08:15:06;42.97;;;40.30;;
45714;SDS011;31430;61.646;24.704;2023-03-29T08:17:33;43.92;;;41.20;;
45714;SDS011;31430;61.646;24.704;2023-03-29T08:20:00;43.92;;;41.20;;
45714;SDS011;31430;61.646;24.704;2023-03-29T08:22:26;43.28;;;40.58;;
45714;SDS011;31430;61.646;24.704;2023-03-29T08:24:52;44.17;;;41.42;;
45714;SDS011;31430;61.646;24.704;2023-03-29T08:27:19;42.40;;;39.78;;
45714;SDS011;31430;61.646;24.704;2023-03-29T08:29:45;44.22;;;41.47;;
45714;SDS011;31430;61.646;24.704;2023-03-29T08:34:36;47.33;;;44.38;;
45714;SDS011;31430;61.646;24.704;2023-03-29T08:37:02;44.35;;;41.58;;
45714;SDS011;31430;61.646;24.704;2023-03-29T08:39:29;43.65;;;40.95;;
45714;SDS011;31430;61.646;24.704;2023-03-29T08:47:14;44.47;;;41.70;;
45714;SDS011;31430;61.646;24.704;2023-03-29T08:49:52;42.67;;;40.03;;
45714;SDS011;31430;61.646;24.704;2023-03-29T08:55:02;43.83;;;41.10;;
45714;SDS011;31430;61.646;24.704;2023-03-29T08:57:45;41.88;;;39.28;;
45714;SDS011;31430;61.646;24.704;2023-03-29T09:00:24;41.47;;;38.88;;
45714;SDS011;31430;61.646;24.704;2023-03-29T09:03:09;42.55;;;39.90;;
45714;SDS011;31430;61.646;24.704;2023-03-29T09:05:46;41.72;;;39.13;;
45714;SDS011;31430;61.646;24.704;2023-03-29T09:08:15;42.67;;;40.03;;
45714;SDS011;31430;61.646;24.704;2023-03-29T09:10:47;40.53;;;38.03;;
45714;SDS011;31430;61.646;24.704;2023-03-29T09:16:25;44.58;;;41.80;;
45714;SDS011;31430;61.646;24.704;2023-03-29T09:19:21;42.53;;;39.90;;
45714;SDS011;31430;61.646;24.704;2023-03-29T09:27:51;44.55;;;41.75;;
45714;SDS011;31430;61.646;24.704;2023-03-29T09:30:42;43.50;;;40.80;;
45714;SDS011;31430;61.646;24.704;2023-03-29T09:33:41;44.00;;;41.28;;
45714;SDS011;31430;61.646;24.704;2023-03-29T09:36:23;44.47;;;41.70;;
45714;SDS011;31430;61.646;24.704;2023-03-29T09:38:58;46.15;;;43.28;;
45714;SDS011;31430;61.646;24.704;2023-03-29T09:41:35;43.67;;;40.97;;
45714;SDS011;31430;61.646;24.704;2023-03-29T09:44:11;42.38;;;39.75;;
45714;SDS011;31430;61.646;24.704;2023-03-29T09:46:42;42.85;;;40.17;;
45714;SDS011;31430;61.646;24.704;2023-03-29T09:49:14;42.00;;;39.40;;
45714;SDS011;31430;61.646;24.704;2023-03-29T09:51:45;41.30;;;38.70;;
45714;SDS011;31430;61.646;24.704;2023-03-29T09:54:13;42.50;;;39.85;;
45714;SDS011;31430;61.646;24.704;2023-03-29T09:59:05;44.03;;;41.30;;
45714;SDS011;31430;61.646;24.704;2023-03-29T10:01:38;42.50;;;39.85;;
45714;SDS011;31430;61.646;24.704;2023-03-29T10:04:06;41.63;;;39.03;;
45714;SDS011;31430;61.646;24.704;2023-03-29T10:06:34;41.75;;;39.15;;
45714;SDS011;31430;61.646;24.704;2023-03-29T10:09:01;41.90;;;39.30;;
45714;SDS011;31430;61.646;24.704;2023-03-29T10:11:32;42.17;;;39.58;;
45714;SDS011;31430;61.646;24.704;2023-03-29T10:14:18;42.70;;;40.05;;
45714;SDS011;31430;61.646;24.704;2023-03-29T10:16:54;41.30;;;38.72;;
45714;SDS011;31430;61.646;24.704;2023-03-29T10:19:22;41.17;;;38.60;;
45714;SDS011;31430;61.646;24.704;2023-03-29T10:21:48;40.65;;;38.13;;
45714;SDS011;31430;61.646;24.704;2023-03-29T10:24:17;40.50;;;38.00;;
45714;SDS011;31430;61.646;24.704;2023-03-29T10:26:48;40.05;;;37.55;;
45714;SDS011;31430;61.646;24.704;2023-03-29T10:29:19;39.30;;;36.85;;
45714;SDS011;31430;61.646;24.704;2023-03-29T10:31:46;39.70;;;37.20;;
45714;SDS011;31430;61.646;24.704;2023-03-29T10:34:12;40.28;;;37.78;;
45714;SDS011;31430;61.646;24.704;2023-03-29T10:36:41;39.78;;;37.28;;
45714;SDS011;31430;61.646;24.704;2023-03-29T10:39:17;41.35;;;38.75;;
45714;SDS011;31430;61.646;24.704;2023-03-29T10:41:44;40.20;;;37.70;;
45714;SDS011;31430;61.646;24.704;2023-03-29T10:44:24;41.17;;;38.60;;
45714;SDS011;31430;61.646;24.704;2023-03-29T10:47:14;41.80;;;39.20;;
45714;SDS011;31430;61.646;24.704;2023-03-29T10:49:44;42.85;;;40.17;;
45714;SDS011;31430;61.646;24.704;2023-03-29T10:52:14;42.25;;;39.63;;
45714;SDS011;31430;61.646;24.704;2023-03-29T10:54:41;43.42;;;40.72;;
45714;SDS011;31430;61.646;24.704;2023-03-29T10:57:09;41.92;;;39.33;;
45714;SDS011;31430;61.646;24.704;2023-03-29T11:38:38;42.53;;;39.88;;
45714;SDS011;31430;61.646;24.704;2023-03-29T11:41:23;43.10;;;40.40;;
45714;SDS011;31430;61.646;24.704;2023-03-29T11:46:26;42.33;;;39.70;;
45714;SDS011;31430;61.646;24.704;2023-03-29T11:49:04;43.70;;;41.00;;
45714;SDS011;31430;61.646;24.704;2023-03-29T11:51:47;42.08;;;39.47;;
45714;SDS011;31430;61.646;24.704;2023-03-29T11:56:56;41.70;;;39.10;;
45714;SDS011;31430;61.646;24.704;2023-03-29T11:59:39;42.83;;;40.15;;
45714;SDS011;31430;61.646;24.704;2023-03-29T12:04:48;42.70;;;40.05;;
45714;SDS011;31430;61.646;24.704;2023-03-29T12:07:38;42.03;;;39.42;;
45714;SDS011;31430;61.646;24.704;2023-03-29T12:10:25;42.35;;;39.72;;
45714;SDS011;31430;61.646;24.704;2023-03-29T12:13:03;41.65;;;39.05;;
45714;SDS011;31430;61.646;24.704;2023-03-29T12:15:41;41.45;;;38.85;;
45714;SDS011;31430;61.646;24.704;2023-03-29T12:18:32;42.83;;;40.15;;
45714;SDS011;31430;61.646;24.704;2023-03-29T12:21:05;40.40;;;37.90;;
45714;SDS011;31430;61.646;24.704;2023-03-29T12:23:36;41.60;;;39.00;;
45714;SDS011;31430;61.646;24.704;2023-03-29T12:26:04;40.10;;;37.60;;
45714;SDS011;31430;61.646;24.704;2023-03-29T12:34:52;42.60;;;39.95;;
45714;SDS011;31430;61.646;24.704;2023-03-29T12:40:00;41.58;;;38.97;;
45714;SDS011;31430;61.646;24.704;2023-03-29T12:42:41;43.88;;;41.15;;
45714;SDS011;31430;61.646;24.704;2023-03-29T12:45:29;43.28;;;40.58;;
45714;SDS011;31430;61.646;24.704;2023-03-29T12:48:04;40.40;;;37.90;;
45714;SDS011;31430;61.646;24.704;2023-03-29T12:50:35;40.45;;;37.95;;
45714;SDS011;31430;61.646;24.704;2023-03-29T12:53:16;42.50;;;39.85;;
45714;SDS011;31430;61.646;24.704;2023-03-29T13:01:35;42.42;;;39.80;;
45714;SDS011;31430;61.646;24.704;2023-03-29T13:09:20;42.15;;;39.55;;
45714;SDS011;31430;61.646;24.704;2023-03-29T13:14:28;44.13;;;41.38;;
45714;SDS011;31430;61.646;24.704;2023-03-29T13:17:05;42.88;;;40.20;;
45714;SDS011;31430;61.646;24.704;2023-03-29T13:38:23;43.20;;;40.50;;
45714;SDS011;31430;61.646;24.704;2023-03-29T13:46:12;43.92;;;41.20;;
45714;SDS011;31430;61.646;24.704;2023-03-29T13:56:21;44.78;;;41.97;;
45714;SDS011;31430;61.646;24.704;2023-03-29T13:59:18;41.53;;;38.92;;
45714;SDS011;31430;61.646;24.704;2023-03-29T14:01:57;43.25;;;40.55;;
45714;SDS011;31430;61.646;24.704;2023-03-29T14:04:27;42.55;;;39.90;;
45714;SDS011;31430;61.646;24.704;2023-03-29T14:06:57;42.92;;;40.25;;
45714;SDS011;31430;61.646;24.704;2023-03-29T14:09:27;42.95;;;40.25;;
45714;SDS011;31430;61.646;24.704;2023-03-29T14:11:56;41.78;;;39.17;;
45714;SDS011;31430;61.646;24.704;2023-03-29T14:14:24;41.17;;;38.60;;
45714;SDS011;31430;61.646;24.704;2023-03-29T14:16:53;42.22;;;39.60;;
45714;SDS011;31430;61.646;24.704;2023-03-29T14:21:55;41.97;;;39.38;;
45714;SDS011;31430;61.646;24.704;2023-03-29T14:24:27;41.17;;;38.60;;
45714;SDS011;31430;61.646;24.704;2023-03-29T14:27:03;41.88;;;39.28;;
45714;SDS011;31430;61.646;24.704;2023-03-29T14:29:30;42.10;;;39.50;;
45714;SDS011;31430;61.646;24.704;2023-03-29T14:32:15;42.58;;;39.92;;
45714;SDS011;31430;61.646;24.704;2023-03-29T14:34:43;42.40;;;39.78;;
45714;SDS011;31430;61.646;24.704;2023-03-29T14:37:12;42.33;;;39.70;;
45714;SDS011;31430;61.646;24.704;2023-03-29T14:39:42;41.08;;;38.53;;
45714;SDS011;31430;61.646;24.704;2023-03-29T14:44:44;44.53;;;41.75;;
45714;SDS011;31430;61.646;24.704;2023-03-29T14:47:28;43.00;;;40.30;;
45714;SDS011;31430;61.646;24.704;2023-03-29T14:49:55;43.25;;;40.55;;
45714;SDS011;31430;61.646;24.704;2023-03-29T14:52:25;42.42;;;39.80;;
45714;SDS011;31430;61.646;24.704;2023-03-29T14:54:53;44.72;;;41.92;;
45714;SDS011;31430;61.646;24.704;2023-03-29T14:57:22;41.80;;;39.20;;
45714;SDS011;31430;61.646;24.704;2023-03-29T14:59:54;42.15;;;39.55;;
45714;SDS011;31430;61.646;24.704;2023-03-29T15:02:32;42.03;;;39.42;;
45714;SDS011;31430;61.646;24.704;2023-03-29T15:04:59;43.10;;;40.40;;
45714;SDS011;31430;61.646;24.704;2023-03-29T15:07:29;42.60;;;39.95;;
45714;SDS011;31430;61.646;24.704;2023-03-29T15:10:00;43.97;;;41.25;;
45714;SDS011;31430;61.646;24.704;2023-03-29T15:12:29;43.00;;;40.30;;
45714;SDS011;31430;61.646;24.704;2023-03-29T15:14:56;42.92;;;40.22;;
45714;SDS011;31430;61.646;24.704;2023-03-29T15:17:27;43.70;;;41.00;;
45714;SDS011;31430;61.646;24.704;2023-03-29T15:19:58;44.10;;;41.35;;
45714;SDS011;31430;61.646;24.704;2023-03-29T15:22:33;44.22;;;41.47;;
45714;SDS011;31430;61.646;24.704;2023-03-29T15:27:25;45.92;;;43.08;;
45714;SDS011;31430;61.646;24.704;2023-03-29T15:29:58;44.35;;;41.58;;
45714;SDS011;31430;61.646;24.704;2023-03-29T15:32:33;44.47;;;41.70;;
45714;SDS011;31430;61.646;24.704;2023-03-29T15:35:00;44.90;;;42.10;;
45714;SDS011;31430;61.646;24.704;2023-03-29T15:37:31;43.13;;;40.42;;
45714;SDS011;31430;61.646;24.704;2023-03-29T15:39:58;44.22;;;41.47;;
45714;SDS011;31430;61.646;24.704;2023-03-29T15:44:53;53.23;;;49.93;;
45714;SDS011;31430;61.646;24.704;2023-03-29T15:47:20;45.03;;;42.22;;
45714;SDS011;31430;61.646;24.704;2023-03-29T15:49:46;45.03;;;42.22;;
45714;SDS011;31430;61.646;24.704;2023-03-29T15:54:37;48.25;;;45.25;;
45714;SDS011;31430;61.646;24.704;2023-03-29T15:59:36;48.88;;;45.85;;
45714;SDS011;31430;61.646;24.704;2023-03-29T16:04:28;49.40;;;46.30;;
45714;SDS011;31430;61.646;24.704;2023-03-29T16:09:20;49.58;;;46.47;;
45714;SDS011;31430;61.646;24.704;2023-03-29T16:11:46;48.25;;;45.25;;
45714;SDS011;31430;61.646;24.704;2023-03-29T16:14:23;45.08;;;42.28;;
45714;SDS011;31430;61.646;24.704;2023-03-29T16:16:51;45.83;;;42.97;;
45714;SDS011;31430;61.646;24.704;2023-03-29T16:19:19;46.35;;;43.45;;
45714;SDS011;31430;61.646;24.704;2023-03-29T16:21:45;44.90;;;42.10;;
45714;SDS011;31430;61.646;24.704;2023-03-29T16:24:13;46.33;;;43.42;;
45714;SDS011;31430;61.646;24.704;2023-03-29T16:26:40;46.50;;;43.60;;
45714;SDS011;31430;61.646;24.704;2023-03-29T16:29:06;46.42;;;43.53;;
45714;SDS011;31430;61.646;24.704;2023-03-29T16:31:32;46.47;;;43.58;;
45714;SDS011;31430;61.646;24.704;2023-03-29T16:33:58;46.92;;;44.03;;
45714;SDS011;31430;61.646;24.704;2023-03-29T16:36:23;47.65;;;44.67;;
45714;SDS011;31430;61.646;24.704;2023-03-29T16:38:50;48.08;;;45.08;;
45714;SDS011;31430;61.646;24.704;2023-03-29T16:41:15;46.38;;;43.47;;
45714;SDS011;31430;61.646;24.704;2023-03-29T16:43:41;48.13;;;45.13;;
45714;SDS011;31430;61.646;24.704;2023-03-29T16:46:09;48.28;;;45.28;;
45714;SDS011;31430;61.646;24.704;2023-03-29T16:48:35;47.83;;;44.85;;
45714;SDS011;31430;61.646;24.704;2023-03-29T16:51:01;48.20;;;45.20;;
45714;SDS011;31430;61.646;24.704;2023-03-29T16:53:27;46.05;;;43.17;;
45714;SDS011;31430;61.646;24.704;2023-03-29T16:55:54;45.85;;;43.00;;
45714;SDS011;31430;61.646;24.704;2023-03-29T16:58:21;47.13;;;44.20;;
45714;SDS011;31430;61.646;24.704;2023-03-29T17:00:48;47.78;;;44.80;;
45714;SDS011;31430;61.646;24.704;2023-03-29T17:03:16;48.20;;;45.20;;
45714;SDS011;31430;61.646;24.704;2023-03-29T17:05:48;47.00;;;44.08;;
45714;SDS011;31430;61.646;24.704;2023-03-29T17:08:16;47.50;;;44.55;;
45714;SDS011;31430;61.646;24.704;2023-03-29T17:10:42;48.47;;;45.47;;
45714;SDS011;31430;61.646;24.704;2023-03-29T17:13:08;48.83;;;45.80;;
45714;SDS011;31430;61.646;24.704;2023-03-29T17:15:35;49.58;;;46.47;;